Pagrindinis puslapis
METAR-TAF:

METAR-TAF

Oro uostai :

Zaporožė, Ukraina

platuma: 47-52-02N, ilguma: 035-18-59E, Aukštis: 114 m

Dabartinis oras

Ataskaita buvo paskelbta 5 valandos ir 57 minutes, ne 18:00 UTC
Vėjas 4 kt iš Rytų/Šiaurės Rytų
Temperatūra 8°C
Drėgmė 36%
Slėgis 1034 hPa
Matomumas 10 km arba daugiau
nėra debesų žemiau 1500 m ir nėra kamuolinių lietaus debesų

METAR: UKDE 071800Z 06002MPS CAVOK 08/M06 Q1034 R02R/090070 NOSIG

Laikas: 02:57 (23:57 UTC)

Prognozė

Ataskaita buvo paskelbta 6 valandos ir 28 minutes, ne 17:29 UTC
Prognozė galioja nuo 07 metu 18 UTC su 08 metu 03 UTC
Vėjas 6 kt iš Šiaurės Rytų
Matomumas 10 km arba daugiau
nėra debesų žemiau 1500 m ir nėra kamuolinių lietaus debesų
Laikinai
nuo 07 metu 18 UTC su 07 metu 24 UTC
Vėjas 6 kt iš Rytų
Tapsmas
nuo 08 metu 00 UTC su 08 metu 02 UTC
Vėjas 6 kt iš Pietų

TAF: UKDE 071729Z 0718/0803 04003MPS CAVOK TX08/0718Z TNM00/0803Z TEMPO 0718/0724 08003MPS BECMG 0800/0802 18003MPS

Orai ataskaitas ir orų prognozės (METAR, TAF).

turimą stotys yra geltonos ir raudonos taškus žemėlapyje.

Perkelti pele per norėdami pamatyti stoties vardą.

Tada spustelėkite, norėdami matyti oro stebėjimo ir prognozės.

Norėdami pakeisti žemėlapį: spustelėkite ant žalios mygtukų su juodo kryžiaus žemyn,; žalią mygtuką su brūkšneliu, jei norite nutolinti; arba žalių rodyklių gretimoms žemėlapius.


METAR-TAF: